Contact Us:
Email: info@sawbill.com
Phone: (218)663-7150
Fax: (218)663-7980
Mail: 4620 Sawbill Trail
Box 2129
Tofte, MN 55615


Powered by
Movable Type 3.15
 
Sawbill Weather History Archives: October 2006
Current Sawbill Weather History | « September 2006 | November 2006 »


Date

High
Temperature

Low
Temperature

Barometric
Pressure

Relative
Humidity 7AM

9 AM
Temperature

Moisture

Snow

10/31/06 31 24 29.86 62% 25 Trace Trace
10/30/06 48 29 29.59 63% 29 0
10/29/06 41 27 29.73 66% 34 0
10/28/06 42 27 29.69 75% 27 .2" .5"
10/27/06 44 31 29.64 78% 31 Trace Trace
10/26/06 45 26 29.92 79% 33 0
10/25/06 41 26 30.13 72% 27 0
10/24/06 40 25 30.16 72% 26 0
10/23/06 40 25 30.12 72% 25 Trace Trace
10/22/06 35 25 29.92 79% 31 Trace Trace
10/21/06 34 24 29.91 72% 25 0
10/20/06 37 30 29.93 78% 31 Trace Trace
10/19/06 35 31 29.72 73% 31 0
10/18/06 38 32 29.85 71% 32 Trace Trace
10/17/06 48 33 29.72 81% 33 .26" Trace
10/16/06 46 29 29.53 85% 45 1.15"
10/15/06 47 28 29.79 76% 31 0
10/14/06 41 24 29.82 83% 28 0
10/13/06 38 24 29.65 81% 30 .33" 3"
10/12/06 32 24 29.60 88% 31 .62" 9"
10/11/06 35 19 29.32 73% 22 .35" 1"
10/10/06 54 29 29.37 79% 35 Trace Trace
10/9/06 62 27 30.16 77% 29 0
10/8/06 62 34 30.39 72% 35 0
10/7/06 68 51 29.86 74% 58 0
10/6/06 61 38 30.06 69% 51 0
10/5/06 65 36 30.31 76% 38 0
10/4/06 60 35 30.39 79% 38 0
10/3/06 62 39 30.33 82% 40 .62"
10/2/06 75 45 30.15 77% 51 0
10/1/06 61 34 29.86 86% 45 0
 


Home I Trip Planning I Rentals and Outfitting I Reservations I Campgrounds I Sawbill Store I Sawbill News I Contact

© 1997 - 2017, Sawbill Canoe Outfitters, Inc. I Privacy Policy